sensor_id;sensor_type;location;lat;lon;timestamp;P1;durP1;ratioP1;P2;durP2;ratioP2
11731;SDS011;5922;53.734;10.258;2024-02-16T05:13:48;5.20;;;2.50;;
11731;SDS011;5922;53.734;10.258;2024-02-16T05:22:52;5.53;;;2.40;;
11731;SDS011;5922;53.734;10.258;2024-02-16T07:11:12;4.13;;;2.43;;
11731;SDS011;5922;53.734;10.258;2024-02-16T07:13:41;4.53;;;2.63;;
11731;SDS011;5922;53.734;10.258;2024-02-16T07:16:09;5.10;;;3.03;;
11731;SDS011;5922;53.734;10.258;2024-02-16T07:18:48;2.97;;;2.50;;
11731;SDS011;5922;53.734;10.258;2024-02-16T07:21:15;5.30;;;2.53;;
11731;SDS011;5922;53.734;10.258;2024-02-16T07:23:45;4.90;;;2.60;;
11731;SDS011;5922;53.734;10.258;2024-02-16T07:26:17;4.40;;;2.40;;
11731;SDS011;5922;53.734;10.258;2024-02-16T07:28:45;3.27;;;2.40;;
11731;SDS011;5922;53.734;10.258;2024-02-16T07:31:12;6.83;;;2.20;;
11731;SDS011;5922;53.734;10.258;2024-02-16T07:33:42;4.23;;;2.30;;
11731;SDS011;5922;53.734;10.258;2024-02-16T07:36:10;4.27;;;2.30;;
11731;SDS011;5922;53.734;10.258;2024-02-16T07:38:44;2.97;;;2.17;;
11731;SDS011;5922;53.734;10.258;2024-02-16T07:41:21;6.60;;;2.40;;
11731;SDS011;5922;53.734;10.258;2024-02-16T07:43:49;2.30;;;2.10;;
11731;SDS011;5922;53.734;10.258;2024-02-16T07:46:16;3.60;;;2.50;;
11731;SDS011;5922;53.734;10.258;2024-02-16T07:48:46;4.37;;;2.40;;
11731;SDS011;5922;53.734;10.258;2024-02-16T07:51:13;4.87;;;2.73;;
11731;SDS011;5922;53.734;10.258;2024-02-16T07:53:40;3.97;;;2.30;;
11731;SDS011;5922;53.734;10.258;2024-02-16T07:56:11;2.37;;;2.00;;
11731;SDS011;5922;53.734;10.258;2024-02-16T07:58:42;5.97;;;2.47;;
11731;SDS011;5922;53.734;10.258;2024-02-16T08:01:12;3.50;;;2.20;;
11731;SDS011;5922;53.734;10.258;2024-02-16T08:03:42;4.57;;;2.20;;
11731;SDS011;5922;53.734;10.258;2024-02-16T08:06:18;3.77;;;2.27;;
11731;SDS011;5922;53.734;10.258;2024-02-16T08:08:46;4.27;;;2.20;;
11731;SDS011;5922;53.734;10.258;2024-02-16T08:11:14;3.93;;;2.20;;
11731;SDS011;5922;53.734;10.258;2024-02-16T08:13:49;3.67;;;2.67;;
11731;SDS011;5922;53.734;10.258;2024-02-16T08:16:17;3.33;;;2.10;;
11731;SDS011;5922;53.734;10.258;2024-02-16T08:18:44;4.70;;;2.37;;
11731;SDS011;5922;53.734;10.258;2024-02-16T08:21:14;7.80;;;3.10;;
11731;SDS011;5922;53.734;10.258;2024-02-16T08:23:41;3.30;;;2.37;;
11731;SDS011;5922;53.734;10.258;2024-02-16T08:26:09;4.37;;;2.40;;
11731;SDS011;5922;53.734;10.258;2024-02-16T08:28:36;3.77;;;2.30;;
11731;SDS011;5922;53.734;10.258;2024-02-16T08:31:10;3.50;;;2.50;;
11731;SDS011;5922;53.734;10.258;2024-02-16T08:33:43;3.00;;;2.50;;
11731;SDS011;5922;53.734;10.258;2024-02-16T08:36:10;2.53;;;2.33;;
11731;SDS011;5922;53.734;10.258;2024-02-16T08:38:37;3.40;;;2.07;;
11731;SDS011;5922;53.734;10.258;2024-02-16T08:41:07;5.83;;;2.30;;
11731;SDS011;5922;53.734;10.258;2024-02-16T08:43:37;6.43;;;2.73;;
11731;SDS011;5922;53.734;10.258;2024-02-16T08:46:04;5.00;;;2.50;;
11731;SDS011;5922;53.734;10.258;2024-02-16T08:48:34;5.30;;;2.10;;
11731;SDS011;5922;53.734;10.258;2024-02-16T08:51:01;2.67;;;2.00;;
11731;SDS011;5922;53.734;10.258;2024-02-16T08:53:31;3.20;;;1.90;;
11731;SDS011;5922;53.734;10.258;2024-02-16T08:56:01;3.90;;;2.30;;
11731;SDS011;5922;53.734;10.258;2024-02-16T08:58:28;4.20;;;2.10;;
11731;SDS011;5922;53.734;10.258;2024-02-16T09:00:58;3.33;;;2.40;;
11731;SDS011;5922;53.734;10.258;2024-02-16T09:03:25;4.53;;;2.13;;
11731;SDS011;5922;53.734;10.258;2024-02-16T09:05:54;4.73;;;2.30;;
11731;SDS011;5922;53.734;10.258;2024-02-16T09:08:21;3.90;;;1.87;;
11731;SDS011;5922;53.734;10.258;2024-02-16T09:10:50;4.00;;;2.17;;
11731;SDS011;5922;53.734;10.258;2024-02-16T09:13:17;5.60;;;2.10;;
11731;SDS011;5922;53.734;10.258;2024-02-16T09:15:45;2.67;;;2.00;;
11731;SDS011;5922;53.734;10.258;2024-02-16T09:18:16;3.30;;;1.90;;
11731;SDS011;5922;53.734;10.258;2024-02-16T09:20:43;3.10;;;2.03;;
11731;SDS011;5922;53.734;10.258;2024-02-16T09:23:15;2.17;;;1.80;;
11731;SDS011;5922;53.734;10.258;2024-02-16T09:25:42;3.67;;;2.20;;
11731;SDS011;5922;53.734;10.258;2024-02-16T09:28:11;3.97;;;2.20;;
11731;SDS011;5922;53.734;10.258;2024-02-16T09:30:38;3.17;;;1.80;;
11731;SDS011;5922;53.734;10.258;2024-02-16T09:33:08;4.40;;;2.10;;
11731;SDS011;5922;53.734;10.258;2024-02-16T09:35:40;5.23;;;1.93;;
11731;SDS011;5922;53.734;10.258;2024-02-16T09:38:08;2.23;;;1.90;;
11731;SDS011;5922;53.734;10.258;2024-02-16T09:40:37;3.43;;;2.13;;
11731;SDS011;5922;53.734;10.258;2024-02-16T09:43:05;7.30;;;2.53;;
11731;SDS011;5922;53.734;10.258;2024-02-16T09:45:32;3.73;;;2.23;;
11731;SDS011;5922;53.734;10.258;2024-02-16T09:48:00;1.90;;;1.70;;
11731;SDS011;5922;53.734;10.258;2024-02-16T09:50:31;4.60;;;2.20;;
11731;SDS011;5922;53.734;10.258;2024-02-16T09:52:58;5.17;;;2.23;;
11731;SDS011;5922;53.734;10.258;2024-02-16T09:55:25;3.27;;;2.03;;
11731;SDS011;5922;53.734;10.258;2024-02-16T09:57:59;3.97;;;2.40;;
11731;SDS011;5922;53.734;10.258;2024-02-16T10:00:27;5.23;;;2.23;;
11731;SDS011;5922;53.734;10.258;2024-02-16T10:02:54;3.30;;;2.20;;
11731;SDS011;5922;53.734;10.258;2024-02-16T10:05:21;4.83;;;2.23;;
11731;SDS011;5922;53.734;10.258;2024-02-16T10:07:49;4.33;;;2.40;;
11731;SDS011;5922;53.734;10.258;2024-02-16T10:10:19;2.60;;;2.13;;
11731;SDS011;5922;53.734;10.258;2024-02-16T10:12:48;5.77;;;2.10;;
11731;SDS011;5922;53.734;10.258;2024-02-16T10:15:20;3.83;;;2.03;;
11731;SDS011;5922;53.734;10.258;2024-02-16T10:17:57;4.73;;;1.97;;
11731;SDS011;5922;53.734;10.258;2024-02-16T10:20:27;3.20;;;2.03;;
11731;SDS011;5922;53.734;10.258;2024-02-16T10:23:04;3.37;;;2.30;;
11731;SDS011;5922;53.734;10.258;2024-02-16T10:25:37;4.03;;;1.90;;
11731;SDS011;5922;53.734;10.258;2024-02-16T10:28:12;2.60;;;1.97;;
11731;SDS011;5922;53.734;10.258;2024-02-16T10:30:48;4.13;;;1.90;;
11731;SDS011;5922;53.734;10.258;2024-02-16T10:33:16;4.53;;;2.00;;
11731;SDS011;5922;53.734;10.258;2024-02-16T10:35:43;4.83;;;1.93;;
11731;SDS011;5922;53.734;10.258;2024-02-16T10:38:11;3.13;;;2.03;;
11731;SDS011;5922;53.734;10.258;2024-02-16T10:40:39;2.37;;;2.10;;
11731;SDS011;5922;53.734;10.258;2024-02-16T10:43:08;7.23;;;1.80;;
11731;SDS011;5922;53.734;10.258;2024-02-16T10:45:38;6.20;;;1.90;;
11731;SDS011;5922;53.734;10.258;2024-02-16T10:48:10;3.63;;;1.80;;
11731;SDS011;5922;53.734;10.258;2024-02-16T10:50:40;2.10;;;1.67;;
11731;SDS011;5922;53.734;10.258;2024-02-16T10:53:09;5.27;;;2.00;;
11731;SDS011;5922;53.734;10.258;2024-02-16T10:55:42;3.37;;;1.80;;
11731;SDS011;5922;53.734;10.258;2024-02-16T10:58:13;4.40;;;2.13;;
11731;SDS011;5922;53.734;10.258;2024-02-16T11:00:50;4.30;;;1.87;;
11731;SDS011;5922;53.734;10.258;2024-02-16T11:03:21;3.07;;;2.00;;
11731;SDS011;5922;53.734;10.258;2024-02-16T11:05:54;2.67;;;1.90;;
11731;SDS011;5922;53.734;10.258;2024-02-16T11:08:24;3.87;;;1.80;;
11731;SDS011;5922;53.734;10.258;2024-02-16T11:10:56;2.40;;;1.87;;
11731;SDS011;5922;53.734;10.258;2024-02-16T11:13:24;4.23;;;1.83;;
11731;SDS011;5922;53.734;10.258;2024-02-16T11:16:00;3.53;;;1.87;;
11731;SDS011;5922;53.734;10.258;2024-02-16T11:18:30;5.07;;;2.30;;
11731;SDS011;5922;53.734;10.258;2024-02-16T11:21:00;3.97;;;1.97;;
11731;SDS011;5922;53.734;10.258;2024-02-16T11:23:27;3.87;;;2.50;;
11731;SDS011;5922;53.734;10.258;2024-02-16T11:25:59;5.03;;;2.27;;
11731;SDS011;5922;53.734;10.258;2024-02-16T11:28:28;4.20;;;2.20;;
11731;SDS011;5922;53.734;10.258;2024-02-16T11:30:55;2.43;;;2.07;;
11731;SDS011;5922;53.734;10.258;2024-02-16T11:33:22;3.63;;;2.00;;
11731;SDS011;5922;53.734;10.258;2024-02-16T11:35:56;5.60;;;2.00;;
11731;SDS011;5922;53.734;10.258;2024-02-16T11:38:23;7.40;;;2.60;;
11731;SDS011;5922;53.734;10.258;2024-02-16T11:40:54;3.23;;;2.03;;
11731;SDS011;5922;53.734;10.258;2024-02-16T11:43:21;3.80;;;2.33;;
11731;SDS011;5922;53.734;10.258;2024-02-16T11:45:49;6.63;;;2.37;;
11731;SDS011;5922;53.734;10.258;2024-02-16T11:48:20;3.20;;;2.20;;
11731;SDS011;5922;53.734;10.258;2024-02-16T11:50:48;3.47;;;2.00;;
11731;SDS011;5922;53.734;10.258;2024-02-16T11:53:20;7.67;;;2.20;;
11731;SDS011;5922;53.734;10.258;2024-02-16T11:55:48;2.97;;;2.23;;
11731;SDS011;5922;53.734;10.258;2024-02-16T11:58:16;7.93;;;3.43;;
11731;SDS011;5922;53.734;10.258;2024-02-16T12:00:44;3.13;;;2.40;;
11731;SDS011;5922;53.734;10.258;2024-02-16T12:03:17;5.77;;;2.67;;
11731;SDS011;5922;53.734;10.258;2024-02-16T12:05:49;4.10;;;2.73;;
11731;SDS011;5922;53.734;10.258;2024-02-16T12:08:16;3.63;;;2.13;;
11731;SDS011;5922;53.734;10.258;2024-02-16T12:10:47;8.87;;;2.63;;
11731;SDS011;5922;53.734;10.258;2024-02-16T12:13:15;5.30;;;2.20;;
11731;SDS011;5922;53.734;10.258;2024-02-16T12:15:44;3.47;;;2.63;;
11731;SDS011;5922;53.734;10.258;2024-02-16T12:18:18;4.80;;;2.73;;
11731;SDS011;5922;53.734;10.258;2024-02-16T12:20:56;2.87;;;2.50;;
11731;SDS011;5922;53.734;10.258;2024-02-16T12:23:23;5.97;;;2.43;;
11731;SDS011;5922;53.734;10.258;2024-02-16T12:25:52;3.47;;;2.33;;
11731;SDS011;5922;53.734;10.258;2024-02-16T12:28:19;3.03;;;2.20;;
11731;SDS011;5922;53.734;10.258;2024-02-16T12:33:29;3.53;;;2.60;;
11731;SDS011;5922;53.734;10.258;2024-02-16T12:36:00;5.33;;;2.30;;
11731;SDS011;5922;53.734;10.258;2024-02-16T12:38:39;5.53;;;2.73;;
11731;SDS011;5922;53.734;10.258;2024-02-16T12:43:56;6.70;;;2.87;;
11731;SDS011;5922;53.734;10.258;2024-02-16T12:52:01;3.73;;;2.80;;
11731;SDS011;5922;53.734;10.258;2024-02-16T13:00:28;4.97;;;3.10;;
11731;SDS011;5922;53.734;10.258;2024-02-16T13:02:55;5.20;;;2.80;;
11731;SDS011;5922;53.734;10.258;2024-02-16T13:05:23;5.10;;;3.03;;
11731;SDS011;5922;53.734;10.258;2024-02-16T13:07:50;3.97;;;2.80;;
11731;SDS011;5922;53.734;10.258;2024-02-16T13:10:17;3.67;;;2.70;;
11731;SDS011;5922;53.734;10.258;2024-02-16T13:12:45;3.70;;;2.50;;
11731;SDS011;5922;53.734;10.258;2024-02-16T13:15:12;4.00;;;2.50;;
11731;SDS011;5922;53.734;10.258;2024-02-16T13:17:45;3.77;;;2.80;;
11731;SDS011;5922;53.734;10.258;2024-02-16T13:20:13;4.60;;;2.57;;
11731;SDS011;5922;53.734;10.258;2024-02-16T13:22:55;4.53;;;2.90;;
11731;SDS011;5922;53.734;10.258;2024-02-16T13:25:47;4.03;;;3.07;;
11731;SDS011;5922;53.734;10.258;2024-02-16T13:28:24;5.10;;;3.00;;
11731;SDS011;5922;53.734;10.258;2024-02-16T13:31:06;4.87;;;2.90;;
11731;SDS011;5922;53.734;10.258;2024-02-16T13:33:38;4.77;;;3.17;;
11731;SDS011;5922;53.734;10.258;2024-02-16T13:36:11;4.47;;;2.70;;
11731;SDS011;5922;53.734;10.258;2024-02-16T13:38:38;6.73;;;3.00;;
11731;SDS011;5922;53.734;10.258;2024-02-16T13:41:12;3.90;;;2.80;;
11731;SDS011;5922;53.734;10.258;2024-02-16T13:43:41;9.00;;;3.20;;
11731;SDS011;5922;53.734;10.258;2024-02-16T13:46:09;4.00;;;3.00;;
11731;SDS011;5922;53.734;10.258;2024-02-16T13:51:24;5.87;;;3.50;;
11731;SDS011;5922;53.734;10.258;2024-02-16T13:53:51;4.60;;;2.90;;
11731;SDS011;5922;53.734;10.258;2024-02-16T13:56:23;4.33;;;3.00;;
11731;SDS011;5922;53.734;10.258;2024-02-16T14:02:23;5.03;;;2.90;;
11731;SDS011;5922;53.734;10.258;2024-02-16T14:08:26;4.83;;;3.00;;
11731;SDS011;5922;53.734;10.258;2024-02-16T14:11:33;6.30;;;3.20;;
11731;SDS011;5922;53.734;10.258;2024-02-16T14:14:00;8.63;;;3.03;;
11731;SDS011;5922;53.734;10.258;2024-02-16T14:16:43;7.43;;;3.70;;
11731;SDS011;5922;53.734;10.258;2024-02-16T14:19:13;4.70;;;3.30;;
11731;SDS011;5922;53.734;10.258;2024-02-16T14:21:42;6.87;;;3.43;;
11731;SDS011;5922;53.734;10.258;2024-02-16T14:24:13;8.50;;;3.13;;
11731;SDS011;5922;53.734;10.258;2024-02-16T14:38:57;4.57;;;3.37;;
11731;SDS011;5922;53.734;10.258;2024-02-16T14:41:27;5.83;;;3.97;;
11731;SDS011;5922;53.734;10.258;2024-02-16T14:43:54;6.33;;;3.97;;
11731;SDS011;5922;53.734;10.258;2024-02-16T14:46:24;6.33;;;4.20;;
11731;SDS011;5922;53.734;10.258;2024-02-16T14:48:52;4.67;;;3.73;;
11731;SDS011;5922;53.734;10.258;2024-02-16T14:51:19;4.93;;;4.00;;
11731;SDS011;5922;53.734;10.258;2024-02-16T14:53:47;6.07;;;4.53;;
11731;SDS011;5922;53.734;10.258;2024-02-16T14:56:14;6.60;;;4.17;;
11731;SDS011;5922;53.734;10.258;2024-02-16T14:58:48;4.40;;;3.80;;
11731;SDS011;5922;53.734;10.258;2024-02-16T15:01:15;7.70;;;3.83;;
11731;SDS011;5922;53.734;10.258;2024-02-16T15:03:43;5.67;;;4.53;;
11731;SDS011;5922;53.734;10.258;2024-02-16T15:06:10;9.87;;;4.27;;
11731;SDS011;5922;53.734;10.258;2024-02-16T15:08:38;4.30;;;3.87;;
11731;SDS011;5922;53.734;10.258;2024-02-16T15:19:08;6.17;;;4.20;;
11731;SDS011;5922;53.734;10.258;2024-02-16T15:21:36;7.47;;;4.43;;
11731;SDS011;5922;53.734;10.258;2024-02-16T15:24:03;6.57;;;4.53;;
11731;SDS011;5922;53.734;10.258;2024-02-16T15:26:31;5.77;;;4.77;;
11731;SDS011;5922;53.734;10.258;2024-02-16T15:46:46;7.03;;;5.03;;
11731;SDS011;5922;53.734;10.258;2024-02-16T15:49:13;5.57;;;4.80;;
11731;SDS011;5922;53.734;10.258;2024-02-16T15:51:40;7.30;;;4.70;;
11731;SDS011;5922;53.734;10.258;2024-02-16T15:54:10;6.40;;;4.67;;
11731;SDS011;5922;53.734;10.258;2024-02-16T15:56:39;6.97;;;4.87;;
11731;SDS011;5922;53.734;10.258;2024-02-16T15:59:08;8.07;;;5.20;;
11731;SDS011;5922;53.734;10.258;2024-02-16T16:01:40;6.30;;;5.00;;
11731;SDS011;5922;53.734;10.258;2024-02-16T16:04:09;5.73;;;5.13;;
11731;SDS011;5922;53.734;10.258;2024-02-16T16:06:38;8.10;;;5.40;;
11731;SDS011;5922;53.734;10.258;2024-02-16T16:09:06;7.43;;;5.20;;
11731;SDS011;5922;53.734;10.258;2024-02-16T16:11:33;8.10;;;5.13;;
11731;SDS011;5922;53.734;10.258;2024-02-16T16:14:01;7.60;;;4.57;;
11731;SDS011;5922;53.734;10.258;2024-02-16T16:16:28;7.50;;;4.30;;
11731;SDS011;5922;53.734;10.258;2024-02-16T16:18:56;3.70;;;3.40;;
11731;SDS011;5922;53.734;10.258;2024-02-16T16:21:25;3.03;;;2.80;;
11731;SDS011;5922;53.734;10.258;2024-02-16T16:23:52;3.97;;;2.77;;
11731;SDS011;5922;53.734;10.258;2024-02-16T16:26:19;2.93;;;2.73;;
11731;SDS011;5922;53.734;10.258;2024-02-16T16:28:49;3.40;;;2.60;;
11731;SDS011;5922;53.734;10.258;2024-02-16T16:44:25;2.90;;;2.70;;
11731;SDS011;5922;53.734;10.258;2024-02-16T16:47:01;2.70;;;2.50;;
11731;SDS011;5922;53.734;10.258;2024-02-16T16:49:29;2.07;;;1.97;;
11731;SDS011;5922;53.734;10.258;2024-02-16T16:51:56;3.13;;;2.20;;
11731;SDS011;5922;53.734;10.258;2024-02-16T16:54:29;5.90;;;2.80;;
11731;SDS011;5922;53.734;10.258;2024-02-16T16:56:58;2.00;;;1.80;;
11731;SDS011;5922;53.734;10.258;2024-02-16T16:59:27;1.70;;;1.60;;
11731;SDS011;5922;53.734;10.258;2024-02-16T17:01:56;2.83;;;2.20;;
11731;SDS011;5922;53.734;10.258;2024-02-16T17:04:28;2.50;;;2.10;;
11731;SDS011;5922;53.734;10.258;2024-02-16T17:06:58;2.40;;;2.17;;
11731;SDS011;5922;53.734;10.258;2024-02-16T17:09:25;1.80;;;1.70;;
11731;SDS011;5922;53.734;10.258;2024-02-16T17:11:52;2.13;;;1.70;;
11731;SDS011;5922;53.734;10.258;2024-02-16T17:14:31;1.70;;;1.43;;
11731;SDS011;5922;53.734;10.258;2024-02-16T17:16:59;2.37;;;1.80;;
11731;SDS011;5922;53.734;10.258;2024-02-16T17:19:28;2.30;;;1.50;;
11731;SDS011;5922;53.734;10.258;2024-02-16T17:22:15;1.70;;;1.53;;
11731;SDS011;5922;53.734;10.258;2024-02-16T17:24:45;1.50;;;1.40;;
11731;SDS011;5922;53.734;10.258;2024-02-16T17:27:15;1.43;;;1.33;;
11731;SDS011;5922;53.734;10.258;2024-02-16T17:29:51;1.20;;;1.10;;
11731;SDS011;5922;53.734;10.258;2024-02-16T17:32:26;0.90;;;0.90;;
11731;SDS011;5922;53.734;10.258;2024-02-16T17:34:54;1.57;;;1.10;;
11731;SDS011;5922;53.734;10.258;2024-02-16T17:37:24;1.10;;;1.00;;
11731;SDS011;5922;53.734;10.258;2024-02-16T17:39:51;1.00;;;1.00;;
11731;SDS011;5922;53.734;10.258;2024-02-16T17:42:19;1.00;;;1.00;;
11731;SDS011;5922;53.734;10.258;2024-02-16T17:47:39;1.63;;;1.20;;
11731;SDS011;5922;53.734;10.258;2024-02-16T17:50:12;0.90;;;0.90;;
11731;SDS011;5922;53.734;10.258;2024-02-16T17:52:50;1.10;;;1.10;;
11731;SDS011;5922;53.734;10.258;2024-02-16T17:55:33;1.10;;;1.10;;
11731;SDS011;5922;53.734;10.258;2024-02-16T17:58:03;1.30;;;1.20;;
11731;SDS011;5922;53.734;10.258;2024-02-16T18:00:30;1.50;;;1.40;;
11731;SDS011;5922;53.734;10.258;2024-02-16T18:03:02;1.60;;;1.50;;
11731;SDS011;5922;53.734;10.258;2024-02-16T18:05:38;1.90;;;1.80;;
11731;SDS011;5922;53.734;10.258;2024-02-16T18:08:10;3.00;;;2.10;;
11731;SDS011;5922;53.734;10.258;2024-02-16T18:10:37;2.30;;;2.10;;
11731;SDS011;5922;53.734;10.258;2024-02-16T18:13:08;2.33;;;2.17;;
11731;SDS011;5922;53.734;10.258;2024-02-16T18:15:39;2.40;;;2.20;;
11731;SDS011;5922;53.734;10.258;2024-02-16T18:18:11;2.87;;;2.27;;
11731;SDS011;5922;53.734;10.258;2024-02-16T18:20:38;3.90;;;2.83;;
11731;SDS011;5922;53.734;10.258;2024-02-16T18:23:06;2.73;;;2.53;;
11731;SDS011;5922;53.734;10.258;2024-02-16T18:25:33;3.93;;;3.00;;
11731;SDS011;5922;53.734;10.258;2024-02-16T18:28:03;3.27;;;2.80;;
11731;SDS011;5922;53.734;10.258;2024-02-16T18:30:33;3.23;;;2.93;;
11731;SDS011;5922;53.734;10.258;2024-02-16T18:33:00;3.50;;;3.20;;
11731;SDS011;5922;53.734;10.258;2024-02-16T18:35:37;3.27;;;2.97;;
11731;SDS011;5922;53.734;10.258;2024-02-16T18:38:07;3.60;;;3.30;;
11731;SDS011;5922;53.734;10.258;2024-02-16T18:40:34;3.20;;;2.90;;
11731;SDS011;5922;53.734;10.258;2024-02-16T18:43:04;3.20;;;2.90;;
11731;SDS011;5922;53.734;10.258;2024-02-16T18:45:40;3.20;;;2.80;;
11731;SDS011;5922;53.734;10.258;2024-02-16T18:48:08;3.60;;;3.30;;
11731;SDS011;5922;53.734;10.258;2024-02-16T18:50:34;6.00;;;3.20;;
11731;SDS011;5922;53.734;10.258;2024-02-16T18:53:09;3.57;;;3.20;;
11731;SDS011;5922;53.734;10.258;2024-02-16T18:55:37;4.13;;;3.33;;
11731;SDS011;5922;53.734;10.258;2024-02-16T18:58:09;3.50;;;3.20;;
11731;SDS011;5922;53.734;10.258;2024-02-16T19:00:37;4.60;;;2.97;;
11731;SDS011;5922;53.734;10.258;2024-02-16T19:03:13;3.03;;;2.73;;
11731;SDS011;5922;53.734;10.258;2024-02-16T19:05:45;4.90;;;3.90;;
11731;SDS011;5922;53.734;10.258;2024-02-16T19:08:15;5.37;;;3.60;;
11731;SDS011;5922;53.734;10.258;2024-02-16T19:10:49;3.90;;;3.57;;
11731;SDS011;5922;53.734;10.258;2024-02-16T19:13:25;3.30;;;2.97;;
11731;SDS011;5922;53.734;10.258;2024-02-16T19:16:05;3.77;;;3.37;;
11731;SDS011;5922;53.734;10.258;2024-02-16T19:18:47;3.50;;;3.20;;
11731;SDS011;5922;53.734;10.258;2024-02-16T19:21:28;4.27;;;3.07;;
11731;SDS011;5922;53.734;10.258;2024-02-16T19:24:04;3.10;;;2.90;;
11731;SDS011;5922;53.734;10.258;2024-02-16T19:26:36;4.00;;;2.30;;
11731;SDS011;5922;53.734;10.258;2024-02-16T19:29:08;2.70;;;2.20;;
11731;SDS011;5922;53.734;10.258;2024-02-16T19:31:43;2.40;;;2.20;;
11731;SDS011;5922;53.734;10.258;2024-02-16T19:34:15;2.70;;;2.50;;
11731;SDS011;5922;53.734;10.258;2024-02-16T19:36:52;2.60;;;2.30;;
11731;SDS011;5922;53.734;10.258;2024-02-16T19:39:29;2.47;;;1.93;;
11731;SDS011;5922;53.734;10.258;2024-02-16T19:42:00;2.17;;;1.90;;
11731;SDS011;5922;53.734;10.258;2024-02-16T19:44:30;3.83;;;2.27;;
11731;SDS011;5922;53.734;10.258;2024-02-16T19:47:01;3.27;;;2.13;;
11731;SDS011;5922;53.734;10.258;2024-02-16T19:49:30;2.27;;;1.93;;
11731;SDS011;5922;53.734;10.258;2024-02-16T19:51:58;3.57;;;2.33;;
11731;SDS011;5922;53.734;10.258;2024-02-16T19:54:32;2.40;;;2.10;;
11731;SDS011;5922;53.734;10.258;2024-02-16T19:57:00;2.47;;;2.27;;
11731;SDS011;5922;53.734;10.258;2024-02-16T19:59:30;2.87;;;2.30;;
11731;SDS011;5922;53.734;10.258;2024-02-16T20:02:00;2.93;;;2.00;;
11731;SDS011;5922;53.734;10.258;2024-02-16T20:04:33;2.53;;;2.33;;
11731;SDS011;5922;53.734;10.258;2024-02-16T20:07:00;4.80;;;2.73;;
11731;SDS011;5922;53.734;10.258;2024-02-16T20:09:34;4.33;;;2.40;;
11731;SDS011;5922;53.734;10.258;2024-02-16T20:12:02;3.60;;;3.00;;
11731;SDS011;5922;53.734;10.258;2024-02-16T20:14:36;2.67;;;2.47;;
11731;SDS011;5922;53.734;10.258;2024-02-16T20:17:09;3.07;;;2.77;;
11731;SDS011;5922;53.734;10.258;2024-02-16T20:19:39;3.37;;;2.87;;
11731;SDS011;5922;53.734;10.258;2024-02-16T20:22:09;3.90;;;3.00;;
11731;SDS011;5922;53.734;10.258;2024-02-16T20:24:39;3.70;;;3.40;;
11731;SDS011;5922;53.734;10.258;2024-02-16T20:27:09;5.03;;;3.87;;
11731;SDS011;5922;53.734;10.258;2024-02-16T20:29:38;4.80;;;3.57;;
11731;SDS011;5922;53.734;10.258;2024-02-16T20:32:25;5.80;;;3.87;;
11731;SDS011;5922;53.734;10.258;2024-02-16T20:34:53;4.17;;;3.80;;
11731;SDS011;5922;53.734;10.258;2024-02-16T20:37:21;4.20;;;3.80;;
11731;SDS011;5922;53.734;10.258;2024-02-16T20:39:52;6.23;;;4.53;;
11731;SDS011;5922;53.734;10.258;2024-02-16T20:42:20;4.97;;;3.63;;
11731;SDS011;5922;53.734;10.258;2024-02-16T20:44:52;5.93;;;3.60;;
11731;SDS011;5922;53.734;10.258;2024-02-16T20:47:20;6.13;;;4.33;;
11731;SDS011;5922;53.734;10.258;2024-02-16T20:49:48;4.17;;;3.77;;
11731;SDS011;5922;53.734;10.258;2024-02-16T20:52:16;4.17;;;3.87;;
11731;SDS011;5922;53.734;10.258;2024-02-16T20:54:43;3.93;;;3.53;;
11731;SDS011;5922;53.734;10.258;2024-02-16T20:57:18;3.90;;;3.50;;
11731;SDS011;5922;53.734;10.258;2024-02-16T20:59:45;5.73;;;3.87;;
11731;SDS011;5922;53.734;10.258;2024-02-16T21:02:12;4.87;;;4.03;;
11731;SDS011;5922;53.734;10.258;2024-02-16T21:04:40;4.93;;;3.80;;
11731;SDS011;5922;53.734;10.258;2024-02-16T21:07:08;4.80;;;4.20;;
11731;SDS011;5922;53.734;10.258;2024-02-16T21:09:36;5.33;;;4.10;;
11731;SDS011;5922;53.734;10.258;2024-02-16T21:12:04;5.07;;;4.20;;
11731;SDS011;5922;53.734;10.258;2024-02-16T21:14:35;4.70;;;4.20;;
11731;SDS011;5922;53.734;10.258;2024-02-16T21:17:05;3.77;;;3.40;;
11731;SDS011;5922;53.734;10.258;2024-02-16T21:19:32;4.80;;;4.27;;
11731;SDS011;5922;53.734;10.258;2024-02-16T21:21:59;5.33;;;4.03;;
11731;SDS011;5922;53.734;10.258;2024-02-16T21:24:26;5.17;;;4.63;;
11731;SDS011;5922;53.734;10.258;2024-02-16T21:26:54;4.50;;;4.10;;
11731;SDS011;5922;53.734;10.258;2024-02-16T21:29:21;7.23;;;5.50;;
11731;SDS011;5922;53.734;10.258;2024-02-16T21:31:51;6.60;;;5.50;;
11731;SDS011;5922;53.734;10.258;2024-02-16T21:34:18;9.33;;;5.97;;
11731;SDS011;5922;53.734;10.258;2024-02-16T21:36:45;6.00;;;5.40;;
11731;SDS011;5922;53.734;10.258;2024-02-16T21:39:18;6.60;;;5.50;;
11731;SDS011;5922;53.734;10.258;2024-02-16T21:41:46;6.80;;;6.10;;
11731;SDS011;5922;53.734;10.258;2024-02-16T21:44:14;7.50;;;5.97;;
11731;SDS011;5922;53.734;10.258;2024-02-16T21:46:44;7.00;;;6.00;;
11731;SDS011;5922;53.734;10.258;2024-02-16T21:49:18;8.53;;;6.57;;
11731;SDS011;5922;53.734;10.258;2024-02-16T21:51:46;7.23;;;6.43;;
11731;SDS011;5922;53.734;10.258;2024-02-16T21:54:13;7.50;;;6.23;;
11731;SDS011;5922;53.734;10.258;2024-02-16T21:56:40;8.67;;;6.43;;
11731;SDS011;5922;53.734;10.258;2024-02-16T21:59:08;9.87;;;7.10;;
11731;SDS011;5922;53.734;10.258;2024-02-16T22:01:35;8.60;;;6.50;;
11731;SDS011;5922;53.734;10.258;2024-02-16T22:04:03;7.30;;;6.17;;
11731;SDS011;5922;53.734;10.258;2024-02-16T22:06:36;7.00;;;5.97;;
11731;SDS011;5922;53.734;10.258;2024-02-16T22:09:03;8.43;;;7.03;;
11731;SDS011;5922;53.734;10.258;2024-02-16T22:11:41;7.23;;;5.67;;
11731;SDS011;5922;53.734;10.258;2024-02-16T22:14:12;8.70;;;6.73;;
11731;SDS011;5922;53.734;10.258;2024-02-16T22:16:40;7.20;;;5.43;;
11731;SDS011;5922;53.734;10.258;2024-02-16T22:19:16;8.10;;;6.10;;
11731;SDS011;5922;53.734;10.258;2024-02-16T22:59:21;6.03;;;3.83;;
11731;SDS011;5922;53.734;10.258;2024-02-16T23:02:04;4.70;;;3.83;;
11731;SDS011;5922;53.734;10.258;2024-02-16T23:04:45;5.17;;;3.70;;
11731;SDS011;5922;53.734;10.258;2024-02-16T23:07:46;6.60;;;3.70;;
11731;SDS011;5922;53.734;10.258;2024-02-16T23:10:56;4.67;;;3.70;;
11731;SDS011;5922;53.734;10.258;2024-02-16T23:16:34;5.47;;;4.10;;
11731;SDS011;5922;53.734;10.258;2024-02-16T23:19:21;4.77;;;3.60;;
11731;SDS011;5922;53.734;10.258;2024-02-16T23:22:08;4.80;;;3.80;;
11731;SDS011;5922;53.734;10.258;2024-02-16T23:24:55;4.97;;;3.60;;
11731;SDS011;5922;53.734;10.258;2024-02-16T23:32:12;5.27;;;3.77;;
11731;SDS011;5922;53.734;10.258;2024-02-16T23:34:05;5.43;;;3.90;;
11731;SDS011;5922;53.734;10.258;2024-02-16T23:36:37;6.00;;;3.97;;
11731;SDS011;5922;53.734;10.258;2024-02-16T23:39:05;4.27;;;3.77;;
11731;SDS011;5922;53.734;10.258;2024-02-16T23:41:57;4.23;;;3.83;;
11731;SDS011;5922;53.734;10.258;2024-02-16T23:44:41;5.07;;;4.20;;
11731;SDS011;5922;53.734;10.258;2024-02-16T23:47:31;6.43;;;4.30;;
11731;SDS011;5922;53.734;10.258;2024-02-16T23:53:20;5.77;;;4.53;;
11731;SDS011;5922;53.734;10.258;2024-02-16T23:56:01;6.67;;;4.63;;
11731;SDS011;5922;53.734;10.258;2024-02-16T23:58:40;6.33;;;5.03;;
